Time;durP1;ratioP1;P1;durP2;ratioP2;P2;SDS_P1;SDS_P2;PMS_P1;PMS_P2;Temp;Humidity;BMP_temperature;BMP_pressure;BME280_temperature;BME280_humidity;BME280_pressure;Samples;Min_cycle;Max_cycle;Signal;HPM_P1;HPM_P2
2022/10/05 00:01:42;;;;;;;20.77;12.52;;;;;;;;;;6255001;22;20148;-85
2022/10/05 00:04:21;;;;;;;16.25;10.10;;;9.40;99.90;;;;;;6249037;23;20156;-84
2022/10/05 00:07:01;;;;;;;22.42;10.30;;;9.50;99.90;;;;;;6252662;22;20171;-86
2022/10/05 00:09:30;;;;;;;16.42;8.55;;;9.60;99.90;;;;;;6248032;22;20207;-85
2022/10/05 00:11:56;;;;;;;15.13;9.27;;;;;;;;;;6245454;22;20141;-83
2022/10/05 00:14:31;;;;;;;21.13;10.20;;;9.50;99.90;;;;;;6262216;23;20330;-87
2022/10/05 00:16:57;;;;;;;17.23;9.35;;;;;;;;;;6258323;22;20390;-85
2022/10/05 00:19:28;;;;;;;15.50;9.38;;;9.30;99.90;;;;;;6250953;23;20142;-86
2022/10/05 00:21:58;;;;;;;16.02;10.77;;;9.30;99.90;;;;;;6252319;22;20151;-85
2022/10/05 00:24:24;;;;;;;16.55;9.85;;;;;;;;;;6249099;22;20194;-87
2022/10/05 00:26:50;;;;;;;15.33;8.53;;;;;;;;;;6250677;23;20156;-85
2022/10/05 00:29:21;;;;;;;19.10;9.35;;;9.50;99.90;;;;;;6251110;23;20411;-85
2022/10/05 00:31:48;;;;;;;18.92;11.10;;;;;;;;;;6246841;22;20141;-86
2022/10/05 00:34:14;;;;;;;23.75;10.95;;;;;;;;;;6248834;23;20160;-86
2022/10/05 00:36:40;;;;;;;19.88;11.23;;;;;;;;;;6260015;22;20170;-84
2022/10/05 00:39:06;;;;;;;18.48;11.65;;;;;;;;;;6262826;22;20183;-84
2022/10/05 00:41:45;;;;;;;24.77;12.27;;;9.20;99.90;;;;;;6266296;22;20156;-85
2022/10/05 00:44:33;;;;;;;21.48;12.63;;;9.10;99.90;;;;;;6263977;22;20399;-85
2022/10/05 00:47:10;;;;;;;25.63;11.95;;;9.10;99.90;;;;;;6260889;22;20121;-85
2022/10/05 00:49:52;;;;;;;15.82;10.80;;;9.10;99.90;;;;;;6263097;23;20175;-83
2022/10/05 00:52:45;;;;;;;21.23;10.90;;;9.10;99.90;;;;;;6258260;22;20977;-83
2022/10/05 00:55:24;;;;;;;21.85;10.45;;;9.10;99.90;;;;;;6256237;22;20200;-85
2022/10/05 00:58:26;;;;;;;16.60;9.80;;;9.10;99.90;;;;;;6255603;23;20168;-84
2022/10/05 01:01:13;;;;;;;28.30;12.25;;;9.10;99.90;;;;;;6245498;23;20143;-84
2022/10/05 01:03:39;;;;;;;19.35;11.07;;;;;;;;;;6247960;22;20139;-84
2022/10/05 01:06:05;;;;;;;14.83;10.17;;;;;;;;;;6249720;23;20145;-85
2022/10/05 01:08:31;;;;;;;22.98;10.23;;;;;;;;;;6245988;23;20463;-83
2022/10/05 01:11:23;;;;;;;21.90;11.27;;;9.00;99.90;;;;;;6244398;23;20662;-84
2022/10/05 01:14:07;;;;;;;11.45;8.73;;;8.90;99.90;;;;;;6237108;23;20380;-85
2022/10/05 01:17:00;;;;;;;15.70;9.40;;;8.80;99.90;;;;;;6246059;23;20571;-85
2022/10/05 01:19:49;;;;;;;17.17;10.43;;;8.90;99.90;;;;;;6247887;22;20149;-84
2022/10/05 01:23:01;;;;;;;13.68;9.57;;;9.00;99.90;;;;;;6246109;22;20173;-84
2022/10/05 01:25:39;;;;;;;17.40;11.52;;;10.20;99.90;;;;;;6214416;22;20837;-85
2022/10/05 01:28:10;;;;;;;18.77;10.50;;;;;;;;;;6245736;23;20172;-85
2022/10/05 01:31:04;;;;;;;21.25;11.05;;;8.90;99.90;;;;;;6241336;23;20160;-85
2022/10/05 01:33:41;;;;;;;13.20;10.30;;;8.80;99.90;;;;;;6245186;23;20243;-85
2022/10/05 01:36:40;;;;;;;17.15;11.10;;;8.80;99.90;;;;;;6249532;23;20208;-84
2022/10/05 01:39:21;;;;;;;17.88;10.20;;;8.70;99.90;;;;;;6246728;23;20806;-85
2022/10/05 01:41:47;;;;;;;21.48;11.82;;;;;;;;;;6256552;23;20152;-84
2022/10/05 01:44:17;;;;;;;25.88;11.00;;;8.70;99.90;;;;;;6252972;23;20182;-85
2022/10/05 01:46:59;;;;;;;20.80;11.60;;;8.80;99.90;;;;;;6246954;23;20141;-83
2022/10/05 01:49:34;;;;;;;22.15;12.90;;;8.70;99.90;;;;;;6247484;23;20176;-84
2022/10/05 01:52:45;;;;;;;15.65;8.20;;;8.70;99.90;;;;;;6243016;23;20220;-85
2022/10/05 01:55:23;;;;;;;23.70;9.30;;;8.50;99.90;;;;;;6247898;22;20129;-85
2022/10/05 01:58:28;;;;;;;16.13;7.97;;;8.40;99.90;;;;;;6250419;23;20207;-84
2022/10/05 02:01:15;;;;;;;15.05;9.52;;;8.40;99.90;;;;;;6254703;22;20176;-87
2022/10/05 02:04:14;;;;;;;11.20;7.50;;;8.40;99.90;;;;;;6247355;23;20156;-86
2022/10/05 02:06:44;;;;;;;15.75;7.80;;;8.70;99.90;;;;;;6242471;23;20623;-84
2022/10/05 02:09:28;;;;;;;13.15;8.30;;;8.50;99.90;;;;;;6242354;22;20199;-86
2022/10/05 02:12:06;;;;;;;20.98;9.00;;;8.60;99.90;;;;;;6241887;22;20643;-85
2022/10/05 02:14:41;;;;;;;19.10;8.27;;;8.70;99.90;;;;;;6247135;22;20580;-86
2022/10/05 02:17:18;;;;;;;15.50;8.88;;;8.40;99.90;;;;;;6243543;22;20848;-87
2022/10/05 02:19:51;;;;;;;26.90;15.00;;;8.60;99.90;;;;;;6243582;23;20148;-85
2022/10/05 02:22:27;;;;;;;33.65;15.82;;;8.50;99.90;;;;;;6244474;22;20594;-85
2022/10/05 02:25:03;;;;;;;21.75;10.40;;;8.30;99.90;;;;;;6241082;23;20132;-86
2022/10/05 02:27:35;;;;;;;18.85;11.00;;;8.40;99.90;;;;;;6244203;22;20172;-86
2022/10/05 02:30:07;;;;;;;25.13;12.15;;;8.40;99.90;;;;;;6245834;22;20141;-87
2022/10/05 02:32:43;;;;;;;30.10;14.32;;;8.40;99.90;;;;;;6241044;23;20179;-85
2022/10/05 02:35:14;;;;;;;24.30;13.57;;;8.30;99.90;;;;;;6244224;23;20163;-85
2022/10/05 02:37:40;;;;;;;28.73;13.90;;;;;;;;;;6240606;22;20199;-85
2022/10/05 02:40:06;;;;;;;78.40;17.10;;;;;;;;;;6244762;23;20149;-85
2022/10/05 02:43:00;;;;;;;279.70;30.00;;;8.20;99.90;;;;;;6241045;23;20569;-85
2022/10/05 02:45:50;;;;;;;18.80;10.85;;;8.20;99.90;;;;;;6243755;22;20367;-85
2022/10/05 02:48:42;;;;;;;14.05;9.57;;;8.20;99.90;;;;;;6242698;23;20176;-86
2022/10/05 02:51:20;;;;;;;27.70;12.40;;;8.20;99.90;;;;;;6241919;23;20214;-85
2022/10/05 02:54:13;;;;;;;24.88;13.80;;;8.30;99.90;;;;;;6229910;23;20164;-85
2022/10/05 02:57:05;;;;;;;20.77;11.70;;;8.40;99.90;;;;;;6239374;23;20401;-85
2022/10/05 02:59:40;;;;;;;26.70;10.73;;;7.50;99.90;;;;;;6237973;23;20148;-85
2022/10/05 03:02:06;;;;;;;17.05;11.02;;;;;;;;;;6252038;22;20120;-84
2022/10/05 03:05:00;;;;;;;18.30;12.30;;;8.20;99.90;;;;;;6257372;23;20152;-85
2022/10/05 03:07:54;;;;;;;15.30;8.70;;;8.20;99.90;;;;;;6248025;22;20387;-85
2022/10/05 03:10:25;;;;;;;13.23;8.38;;;8.00;99.90;;;;;;6244094;22;20141;-85
2022/10/05 03:12:51;;;;;;;19.90;10.10;;;;;;;;;;6242449;23;20141;-85
2022/10/05 03:15:43;;;;;;;17.30;9.57;;;7.90;99.90;;;;;;6244882;23;20152;-85
2022/10/05 03:18:26;;;;;;;22.88;11.77;;;7.90;99.90;;;;;;6244627;23;20289;-84
2022/10/05 03:21:11;;;;;;;17.13;9.77;;;8.00;99.90;;;;;;6257531;22;20128;-83
2022/10/05 03:24:01;;;;;;;18.38;8.15;;;7.00;99.90;;;;;;6249065;22;20144;-85
2022/10/05 03:26:42;;;;;;;14.90;9.55;;;7.90;99.90;;;;;;6263327;22;20143;-83
2022/10/05 03:29:24;;;;;;;19.27;9.55;;;7.50;99.90;;;;;;6251177;23;20180;-84
2022/10/05 03:32:38;;;;;;;16.25;8.98;;;7.90;99.90;;;;;;6253883;22;20615;-84
2022/10/05 03:35:38;;;;;;;16.40;9.30;;;8.00;99.90;;;;;;6242215;23;20650;-84
2022/10/05 03:38:28;;;;;;;27.10;8.68;;;8.00;99.90;;;;;;6201961;23;20187;-86
2022/10/05 03:41:16;;;;;;;19.02;9.55;;;8.00;99.90;;;;;;6245743;23;20149;-84
2022/10/05 03:43:57;;;;;;;28.35;13.63;;;8.00;99.90;;;;;;6244330;23;20591;-85
2022/10/05 03:46:43;;;;;;;39.63;16.90;;;8.00;99.90;;;;;;6245980;23;20148;-83
2022/10/05 03:49:30;;;;;;;37.08;17.52;;;8.10;99.90;;;;;;6245723;23;20206;-84
2022/10/05 03:52:10;;;;;;;27.30;12.55;;;8.00;99.90;;;;;;6243355;23;20141;-83
2022/10/05 03:54:41;;;;;;;35.75;16.13;;;8.00;99.90;;;;;;6243955;23;20150;-84
2022/10/05 03:57:15;;;;;;;39.42;14.98;;;8.10;99.90;;;;;;6244217;22;20161;-83
2022/10/05 03:59:45;;;;;;;186.57;26.00;;;;;;;;;;6244842;23;20159;-85
2022/10/05 04:02:48;;;;;;;409.00;36.90;;;7.80;99.90;;;;;;6242466;23;20205;-84
2022/10/05 04:05:20;;;;;;;102.07;16.80;;;8.10;99.90;;;;;;6241496;23;20198;-84
2022/10/05 04:08:00;;;;;;;100.93;16.10;;;8.10;99.90;;;;;;6239494;23;20183;-84
2022/10/05 04:10:38;;;;;;;73.40;12.77;;;8.10;99.90;;;;;;6235349;22;20150;-85
2022/10/05 04:13:06;;;;;;;116.68;21.90;;;;;;;;;;6241949;23;20144;-85
2022/10/05 04:15:54;;;;;;;231.65;22.67;;;8.00;99.90;;;;;;6242357;23;20167;-84
2022/10/05 04:18:27;;;;;;;90.13;18.52;;;8.10;99.90;;;;;;6250639;22;20260;-85
2022/10/05 04:21:01;;;;;;;143.65;19.05;;;8.00;99.90;;;;;;6248402;22;20163;-84
2022/10/05 04:23:48;;;;;;;55.85;15.20;;;8.00;99.90;;;;;;6238805;22;20172;-85
2022/10/05 04:26:23;;;;;;;67.45;11.63;;;8.00;99.90;;;;;;6245619;23;20145;-84
2022/10/05 04:28:55;;;;;;;120.53;15.82;;;7.80;99.90;;;;;;6242136;22;20262;-85
2022/10/05 04:31:43;;;;;;;101.30;14.93;;;7.70;99.90;;;;;;6243657;22;20180;-84
2022/10/05 04:34:29;;;;;;;78.63;14.45;;;7.70;99.90;;;;;;6247964;22;20148;-86
2022/10/05 04:37:01;;;;;;;183.20;22.48;;;7.70;99.90;;;;;;6254881;22;20670;-86
2022/10/05 04:39:43;;;;;;;88.57;15.10;;;7.70;99.90;;;;;;6243883;22;20137;-86
2022/10/05 04:42:39;;;;;;;67.57;14.27;;;7.60;99.90;;;;;;6257891;22;20179;-84
2022/10/05 04:45:44;;;;;;;88.63;15.10;;;7.60;99.90;;;;;;6252852;23;20161;-85
2022/10/05 04:48:12;;;;;;;105.53;21.25;;;8.10;99.90;;;;;;6247444;22;20509;-86
2022/10/05 04:51:15;;;;;;;138.02;20.92;;;7.80;99.90;;;;;;6245447;23;20168;-84
2022/10/05 04:53:41;;;;;;;76.72;14.88;;;;;;;;;;6241487;23;20155;-84
2022/10/05 04:56:38;;;;;;;48.87;13.03;;;7.70;99.90;;;;;;6246653;23;20129;-86
2022/10/05 04:59:13;;;;;;;23.65;10.68;;;;;;;;;;6217282;22;20411;-86
2022/10/05 05:02:11;;;;;;;39.00;13.20;;;7.40;99.90;;;;;;6239186;23;20166;-86
2022/10/05 05:05:14;;;;;;;20.27;11.02;;;7.40;99.90;;;;;;6244568;23;20144;-85
2022/10/05 05:07:52;;;;;;;20.13;9.73;;;7.50;99.90;;;;;;6241677;23;20180;-86
2022/10/05 05:10:45;;;;;;;21.30;9.88;;;7.30;99.90;;;;;;6245297;22;20136;-85
2022/10/05 05:13:37;;;;;;;15.77;9.57;;;7.30;99.90;;;;;;6232568;23;20156;-86
2022/10/05 05:16:09;;;;;;;22.88;10.75;;;7.40;99.90;;;;;;6244548;23;20137;-86
2022/10/05 05:18:35;;;;;;;23.42;11.30;;;;;;;;;;6256641;23;20203;-85
2022/10/05 05:21:19;;;;;;;27.87;10.90;;;7.40;99.90;;;;;;6255479;23;20161;-86
2022/10/05 05:24:06;;;;;;;23.48;12.68;;;7.50;99.90;;;;;;6246190;23;20843;-85
2022/10/05 05:26:49;;;;;;;21.55;11.73;;;7.50;99.90;;;;;;6249705;23;20168;-85
2022/10/05 05:29:38;;;;;;;17.73;10.90;;;7.50;99.90;;;;;;6249294;22;20175;-87
2022/10/05 05:32:32;;;;;;;21.58;10.45;;;7.60;99.90;;;;;;6245274;23;20172;-87
2022/10/05 05:34:58;;;;;;;23.92;13.00;;;;;;;;;;6249147;22;20148;-86
2022/10/05 05:37:37;;;;;;;35.10;15.20;;;7.80;99.90;;;;;;6246537;23;20179;-85
2022/10/05 05:40:03;;;;;;;35.47;17.38;;;;;;;;;;6245987;23;20694;-87
2022/10/05 05:42:42;;;;;;;33.50;16.47;;;8.10;99.90;;;;;;6241181;23;20524;-86
2022/10/05 05:45:35;;;;;;;36.35;15.48;;;8.20;99.90;;;;;;6242060;23;20904;-85
2022/10/05 05:48:04;;;;;;;27.15;13.20;;;8.40;99.90;;;;;;6241187;23;20194;-85
2022/10/05 05:50:31;;;;;;;23.40;12.02;;;;;;;;;;6243102;23;21050;-84
2022/10/05 05:53:16;;;;;;;27.98;12.70;;;8.90;99.90;;;;;;6226694;23;20141;-85
2022/10/05 05:55:47;;;;;;;30.77;15.45;;;9.70;99.90;;;;;;6244552;22;20184;-86
2022/10/05 05:58:26;;;;;;;38.97;15.93;;;10.40;99.90;;;;;;6237372;23;20172;-86
2022/10/05 06:01:03;;;;;;;26.35;15.50;;;11.40;99.90;;;;;;6236880;22;20136;-84
2022/10/05 06:03:47;;;;;;;24.90;14.73;;;12.20;99.90;;;;;;6259411;22;20140;-84
2022/10/05 06:06:15;;;;;;;33.15;14.65;;;12.50;99.90;;;;;;6261459;22;20156;-85
2022/10/05 06:08:46;;;;;;;23.58;13.52;;;12.60;99.90;;;;;;6251560;23;20203;-84
2022/10/05 06:11:44;;;;;;;27.00;13.30;;;12.90;99.90;;;;;;6254126;22;20160;-85
2022/10/05 06:14:12;;;;;;;22.92;15.85;;;;;;;;;;6232591;23;20163;-85
2022/10/05 06:16:50;;;;;;;24.40;12.07;;;14.10;99.90;;;;;;6239495;23;20163;-86
2022/10/05 06:19:20;;;;;;;17.67;10.75;;;15.00;99.90;;;;;;6245672;22;20496;-86
2022/10/05 06:21:46;;;;;;;19.60;11.03;;;;;;;;;;6234118;23;20156;-86
2022/10/05 06:24:28;;;;;;;16.73;10.00;;;16.80;99.90;;;;;;6240575;23;20356;-85
2022/10/05 06:27:26;;;;;;;13.50;10.00;;;17.90;99.90;;;;;;6243775;22;20401;-87
2022/10/05 06:30:14;;;;;;;17.73;9.87;;;18.10;99.90;;;;;;6240359;23;20415;-87
2022/10/05 06:33:01;;;;;;;28.23;17.13;;;19.20;99.90;;;;;;6241470;22;20415;-87
2022/10/05 06:35:30;;;;;;;21.90;13.73;;;18.80;99.90;;;;;;6244471;23;20363;-88
2022/10/05 06:38:25;;;;;;;13.70;10.13;;;19.40;99.90;;;;;;6244064;23;20379;-87
2022/10/05 06:41:09;;;;;;;14.10;10.33;;;;;;;;;;6241469;23;20825;-87
2022/10/05 06:43:53;;;;;;;10.20;8.60;;;21.30;99.90;;;;;;6244411;23;20359;-88
2022/10/05 06:46:35;;;;;;;17.90;9.63;;;22.30;99.90;;;;;;6246428;22;20378;-88
2022/10/05 06:49:15;;;;;;;13.33;10.67;;;23.60;99.90;;;;;;6244576;23;20415;-87
2022/10/05 06:51:59;;;;;;;10.77;8.97;;;24.60;99.90;;;;;;6240271;23;20379;-86
2022/10/05 06:54:49;;;;;;;12.07;8.47;;;24.50;99.90;;;;;;6243916;23;20344;-86
2022/10/05 06:57:39;;;;;;;10.93;8.07;;;23.90;99.90;;;;;;6239903;23;20434;-87
2022/10/05 07:00:16;;;;;;;10.57;7.37;;;24.70;99.90;;;;;;6244493;22;20363;-85
2022/10/05 07:02:44;;;;;;;11.43;7.70;;;25.70;99.90;;;;;;6243581;22;20741;-88
2022/10/05 07:05:10;;;;;;;17.10;9.07;;;;;;;;;;6242655;23;20396;-88
2022/10/05 07:07:52;;;;;;;11.60;8.53;;;26.00;95.00;;;;;;6239534;23;20560;-86
2022/10/05 07:10:30;;;;;;;20.73;9.40;;;25.40;95.30;;;;;;6240850;22;20901;-86
2022/10/05 07:12:59;;;;;;;13.10;9.47;;;;;;;;;;6237011;23;21178;-86
2022/10/05 07:15:43;;;;;;;8.47;6.73;;;24.20;95.80;;;;;;6242583;23;20379;-86
2022/10/05 07:18:24;;;;;;;9.43;6.17;;;23.20;96.00;;;;;;6240237;23;20403;-86
2022/10/05 07:20:53;;;;;;;8.30;5.57;;;;;;;;;;6241985;23;20409;-86
2022/10/05 07:23:31;;;;;;;8.90;6.87;;;22.40;99.30;;;;;;6238363;23;20350;-86
2022/10/05 07:26:08;;;;;;;8.30;5.97;;;22.30;99.90;;;;;;6246752;23;20343;-86
2022/10/05 07:28:47;;;;;;;8.40;6.30;;;23.10;99.90;;;;;;6263085;23;20430;-86
2022/10/05 07:31:33;;;;;;;6.60;5.40;;;23.30;99.00;;;;;;6255977;23;20468;-86
2022/10/05 07:34:23;;;;;;;7.40;6.67;;;23.40;99.30;;;;;;6258338;22;20389;-87
2022/10/05 07:40:19;;;;;;;11.63;8.93;;;26.70;96.90;;;;;;6245304;23;20448;-89
2022/10/05 07:43:10;;;;;;;14.47;9.70;;;28.60;93.40;;;;;;6246998;22;20785;-87
2022/10/05 07:45:55;;;;;;;12.50;7.20;;;28.90;90.30;;;;;;6245908;23;20405;-86
2022/10/05 07:48:25;;;;;;;9.80;6.60;;;28.10;87.70;;;;;;6247513;23;20411;-88
2022/10/05 07:51:11;;;;;;;18.53;8.13;;;27.30;88.60;;;;;;6244236;22;20356;-87
2022/10/05 07:53:47;;;;;;;10.43;8.27;;;27.00;90.00;;;;;;6230112;23;20864;-87
2022/10/05 07:56:19;;;;;;;14.57;8.03;;;27.10;91.00;;;;;;6247423;22;20352;-87
2022/10/05 07:58:48;;;;;;;9.13;7.80;;;27.40;89.20;;;;;;6237834;23;20417;-87
2022/10/05 08:01:18;;;;;;;10.43;8.73;;;28.10;86.40;;;;;;6244995;22;20376;-86
2022/10/05 08:03:59;;;;;;;11.23;8.70;;;29.00;87.90;;;;;;6245990;22;20421;-86
2022/10/05 08:06:44;;;;;;;10.77;9.70;;;29.00;83.90;;;;;;6245516;23;20378;-86
2022/10/05 08:09:33;;;;;;;13.17;10.53;;;30.20;81.20;;;;;;6246583;23;20455;-86
2022/10/05 08:12:27;;;;;;;12.77;10.70;;;31.20;78.30;;;;;;6242957;23;20407;-86
2022/10/05 08:14:59;;;;;;;12.33;9.27;;;;;;;;;;6244969;23;20465;-86
2022/10/05 08:18:03;;;;;;;15.53;10.97;;;33.10;70.30;;;;;;6247693;23;20405;-87
2022/10/05 08:20:53;;;;;;;12.67;10.83;;;33.10;77.50;;;;;;6251710;22;20391;-87
2022/10/05 08:23:32;;;;;;;11.60;10.40;;;33.90;65.10;;;;;;6235166;22;20368;-86
2022/10/05 08:26:22;;;;;;;11.70;10.77;;;33.70;63.40;;;;;;6245115;23;20469;-87
2022/10/05 08:29:12;;;;;;;10.47;9.47;;;33.60;66.70;;;;;;6244301;23;20466;-87
2022/10/05 08:31:42;;;;;;;11.23;10.33;;;32.50;62.50;;;;;;6251225;23;20359;-86
2022/10/05 08:34:45;;;;;;;9.80;9.20;;;31.70;65.80;;;;;;6246620;22;20392;-86
2022/10/05 08:37:19;;;;;;;11.00;10.03;;;30.90;67.10;;;;;;6237322;23;20450;-86
2022/10/05 08:39:59;;;;;;;13.40;9.03;;;29.60;70.70;;;;;;6248508;22;20363;-86
2022/10/05 08:42:52;;;;;;;9.50;8.73;;;29.70;72.00;;;;;;6246302;23;20375;-87
2022/10/05 08:45:38;;;;;;;9.03;8.13;;;29.20;73.50;;;;;;6244274;23;20378;-87
2022/10/05 08:48:41;;;;;;;10.67;9.77;;;28.70;75.00;;;;;;6267439;23;20403;-86
2022/10/05 08:51:13;;;;;;;8.60;7.80;;;28.60;78.30;;;;;;6261234;22;20449;-87
2022/10/05 08:54:04;;;;;;;8.23;7.50;;;26.70;81.40;;;;;;6253258;23;20351;-87
2022/10/05 08:57:07;;;;;;;13.40;7.30;;;26.50;99.90;;;;;;6263937;22;20379;-87
2022/10/05 08:59:44;;;;;;;10.73;6.97;;;25.70;92.80;;;;;;6246449;23;20367;-86
2022/10/05 09:02:51;;;;;;;10.83;6.90;;;26.30;92.00;;;;;;6243855;23;20871;-86
2022/10/05 09:05:23;;;;;;;10.77;5.00;;;;;;;;;;6153626;23;20387;-87
2022/10/05 09:08:22;;;;;;;4.93;4.53;;;28.70;84.00;;;;;;6254424;22;20403;-87
2022/10/05 09:11:16;;;;;;;9.00;4.90;;;28.40;81.40;;;;;;6240992;23;20408;-86
2022/10/05 09:13:41;;;;;;;9.10;5.70;;;;;;;;;;6242906;23;20349;-86
2022/10/05 09:16:38;;;;;;;5.83;5.33;;;29.20;74.60;;;;;;6241022;23;20456;-89
2022/10/05 09:19:05;;;;;;;5.60;4.80;;;;;;;;;;6246060;22;20441;-87
2022/10/05 09:21:42;;;;;;;5.70;4.53;;;28.30;78.00;;;;;;6247220;22;20909;-88
2022/10/05 09:24:13;;;;;;;8.40;5.47;;;27.80;80.10;;;;;;6245337;22;20374;-88
2022/10/05 09:27:06;;;;;;;10.77;4.50;;;27.90;83.90;;;;;;6248151;23;20395;-88
2022/10/05 09:29:59;;;;;;;4.63;4.23;;;28.60;80.80;;;;;;6249966;23;20421;-88
2022/10/05 09:32:52;;;;;;;5.70;4.70;;;27.20;78.40;;;;;;6246145;23;21086;-88
2022/10/05 09:35:47;;;;;;;4.63;4.23;;;25.90;83.70;;;;;;6247258;23;20378;-88
2022/10/05 09:38:45;;;;;;;4.90;4.40;;;25.00;86.90;;;;;;6249401;22;20401;-88
2022/10/05 09:41:16;;;;;;;6.50;4.60;;;24.00;89.40;;;;;;6249385;23;20437;-88
2022/10/05 09:44:03;;;;;;;5.80;5.10;;;23.40;91.20;;;;;;6242684;23;20379;-87
2022/10/05 09:46:29;;;;;;;4.97;3.90;;;;;;;;;;6247267;23;21274;-88
2022/10/05 09:49:12;;;;;;;6.63;4.07;;;22.40;94.70;;;;;;6251654;23;20411;-88
2022/10/05 09:51:55;;;;;;;4.73;3.70;;;20.70;98.20;;;;;;6244240;23;20467;-87
2022/10/05 09:54:45;;;;;;;5.40;4.20;;;20.20;99.90;;;;;;6245960;22;20451;-88
2022/10/05 09:57:35;;;;;;;9.80;3.50;;;19.70;99.90;;;;;;6247106;23;20366;-88
2022/10/05 10:00:14;;;;;;;4.90;4.30;;;19.40;99.90;;;;;;6245758;23;20379;-87
2022/10/05 10:03:11;;;;;;;5.60;4.13;;;19.00;99.90;;;;;;6245572;23;20465;-88
2022/10/05 10:06:15;;;;;;;3.97;3.60;;;19.40;99.90;;;;;;6244444;23;20384;-87
2022/10/05 10:09:03;;;;;;;6.37;3.67;;;19.20;99.90;;;;;;6247015;22;20779;-88
2022/10/05 10:11:29;;;;;;;6.93;4.40;;;;;;;;;;6245583;23;20380;-87
2022/10/05 10:13:55;;;;;;;6.30;4.47;;;;;;;;;;6239318;23;20376;-88
2022/10/05 10:16:22;;;;;;;10.80;3.93;;;;;;;;;;6242523;23;20390;-88
2022/10/05 10:18:51;;;;;;;5.07;3.83;;;;;;;;;;6245796;23;20418;-87
2022/10/05 10:21:46;;;;;;;5.57;4.33;;;20.10;99.90;;;;;;6264740;22;20395;-86
2022/10/05 10:24:49;;;;;;;4.40;3.83;;;20.40;99.90;;;;;;6241637;23;20780;-88
2022/10/05 10:27:42;;;;;;;4.43;4.00;;;20.10;99.90;;;;;;6252418;23;20383;-87
2022/10/05 10:30:51;;;;;;;4.30;3.90;;;20.00;99.90;;;;;;6249078;22;20403;-85
2022/10/05 10:33:41;;;;;;;5.30;4.17;;;20.10;99.90;;;;;;6246713;22;20412;-87
2022/10/05 10:36:44;;;;;;;4.83;4.10;;;20.20;99.90;;;;;;6246305;23;20363;-84
2022/10/05 10:39:19;;;;;;;7.90;4.17;;;19.00;99.90;;;;;;6237479;23;20386;-85
2022/10/05 10:41:45;;;;;;;9.00;5.10;;;;;;;;;;6241465;23;20864;-86
2022/10/05 10:44:35;;;;;;;13.70;6.40;;;21.00;99.90;;;;;;6244603;23;20352;-86
2022/10/05 10:47:24;;;;;;;8.13;5.33;;;21.10;99.90;;;;;;6241213;22;20356;-86
2022/10/05 10:50:25;;;;;;;5.90;4.73;;;21.10;99.90;;;;;;6238209;23;20419;-85
2022/10/05 10:53:26;;;;;;;5.60;3.60;;;20.90;99.90;;;;;;6240110;23;20450;-84
2022/10/05 10:56:19;;;;;;;3.40;3.00;;;21.00;99.90;;;;;;6230543;23;20437;-85
2022/10/05 10:59:11;;;;;;;6.70;3.80;;;21.20;99.90;;;;;;6247029;23;20450;-84
2022/10/05 11:02:14;;;;;;;3.70;3.10;;;20.80;99.90;;;;;;6241841;23;20390;-86
2022/10/05 11:04:53;;;;;;;4.13;3.40;;;21.30;99.90;;;;;;6248839;23;20360;-85
2022/10/05 11:07:48;;;;;;;5.00;3.10;;;21.90;99.90;;;;;;6244350;23;20387;-85
2022/10/05 11:10:31;;;;;;;5.80;3.43;;;22.10;99.90;;;;;;6244261;23;20399;-84
2022/10/05 11:13:27;;;;;;;6.80;3.20;;;22.00;99.90;;;;;;6244899;22;20367;-85
2022/10/05 11:16:34;;;;;;;3.30;2.53;;;21.90;99.90;;;;;;6249369;22;20431;-85
2022/10/05 11:19:38;;;;;;;5.50;2.97;;;20.60;99.90;;;;;;6254647;23;20426;-85
2022/10/05 11:22:29;;;;;;;5.83;3.30;;;22.40;99.90;;;;;;6234290;23;20447;-85
2022/10/05 11:25:01;;;;;;;3.57;3.27;;;22.30;99.90;;;;;;6244192;22;20369;-82
2022/10/05 11:27:53;;;;;;;5.93;2.83;;;22.00;99.90;;;;;;6248730;23;20643;-84
2022/10/05 11:30:21;;;;;;;4.93;3.20;;;22.40;99.90;;;;;;6251167;22;20392;-84
2022/10/05 11:33:25;;;;;;;5.00;2.80;;;22.40;99.90;;;;;;6261154;22;20407;-82
2022/10/05 11:35:51;;;;;;;4.47;2.83;;;;;;;;;;6261494;23;20359;-85
2022/10/05 11:38:36;;;;;;;3.93;2.70;;;22.60;99.90;;;;;;6251467;23;20403;-83
2022/10/05 11:41:37;;;;;;;2.13;1.80;;;22.20;99.90;;;;;;6251275;23;20352;-82
2022/10/05 11:44:02;;;;;;;4.23;2.30;;;;;;;;;;6235947;23;20402;-84
2022/10/05 11:46:40;;;;;;;3.27;2.97;;;22.40;99.90;;;;;;6258415;23;20366;-81
2022/10/05 11:49:38;;;;;;;3.10;2.80;;;22.90;99.90;;;;;;6262711;22;20465;-82
2022/10/05 11:52:29;;;;;;;4.83;2.60;;;23.00;99.90;;;;;;6239986;23;20371;-83
2022/10/05 11:55:23;;;;;;;3.47;2.40;;;21.90;99.90;;;;;;6262869;22;20371;-83
2022/10/05 11:58:00;;;;;;;6.80;3.47;;;23.50;99.90;;;;;;6254395;23;20458;-83
2022/10/05 12:00:31;;;;;;;3.33;2.60;;;23.90;99.90;;;;;;6252571;22;20383;-84
2022/10/05 12:03:37;;;;;;;2.70;2.43;;;24.10;99.90;;;;;;6250669;23;20372;-85
2022/10/05 12:06:13;;;;;;;4.63;2.30;;;24.30;99.90;;;;;;6261557;22;20448;-84
2022/10/05 12:09:21;;;;;;;2.63;2.43;;;24.20;99.90;;;;;;6257851;23;21096;-84
2022/10/05 12:12:06;;;;;;;5.23;2.20;;;24.50;99.90;;;;;;6206079;23;20419;-84
2022/10/05 12:14:39;;;;;;;4.60;3.23;;;24.40;99.90;;;;;;6254719;22;20376;-84
2022/10/05 12:17:05;;;;;;;5.20;2.77;;;;;;;;;;6254200;23;20421;-84
2022/10/05 12:19:41;;;;;;;5.33;3.73;;;24.50;99.90;;;;;;6248700;23;20389;-84
2022/10/05 12:22:45;;;;;;;4.97;2.57;;;23.80;99.90;;;;;;6250937;22;20369;-83
2022/10/05 12:25:11;;;;;;;5.50;2.63;;;;;;;;;;6246383;22;20734;-85
2022/10/05 12:27:41;;;;;;;5.77;2.63;;;24.00;99.90;;;;;;6247314;23;21131;-85
2022/10/05 12:30:37;;;;;;;5.73;2.57;;;24.00;99.90;;;;;;6248591;22;20420;-86
2022/10/05 12:33:13;;;;;;;3.20;2.50;;;24.00;99.90;;;;;;6231593;23;20432;-86
2022/10/05 12:35:51;;;;;;;3.00;2.17;;;24.10;99.90;;;;;;6247052;23;20392;-87
2022/10/05 12:38:31;;;;;;;2.60;2.30;;;24.30;99.90;;;;;;6249056;22;20407;-86
2022/10/05 12:41:26;;;;;;;3.07;2.47;;;24.30;99.90;;;;;;6247922;22;20369;-87
2022/10/05 12:44:11;;;;;;;4.70;2.97;;;23.80;99.90;;;;;;6245366;22;20360;-87
2022/10/05 12:47:00;;;;;;;7.10;2.33;;;24.70;99.90;;;;;;6247873;22;20367;-88
2022/10/05 12:49:26;;;;;;;5.43;2.63;;;;;;;;;;6246740;22;20403;-87
2022/10/05 12:52:00;;;;;;;2.40;1.90;;;24.50;99.90;;;;;;6236747;23;20383;-85
2022/10/05 12:54:47;;;;;;;5.20;2.57;;;24.50;99.90;;;;;;6244404;22;20397;-87
2022/10/05 12:57:26;;;;;;;4.00;2.40;;;25.10;99.90;;;;;;6243961;23;20401;-88
2022/10/05 13:00:07;;;;;;;2.50;2.30;;;23.90;99.90;;;;;;6245615;23;20394;-88
2022/10/05 13:02:45;;;;;;;3.43;2.70;;;24.00;99.90;;;;;;6244138;23;20996;-88
2022/10/05 13:05:11;;;;;;;7.80;2.30;;;;;;;;;;6246343;23;21487;-88
2022/10/05 13:07:44;;;;;;;4.97;2.70;;;24.10;99.90;;;;;;6239664;23;20411;-87
2022/10/05 13:10:37;;;;;;;3.13;2.10;;;24.10;99.90;;;;;;6247333;22;20498;-88
2022/10/05 13:13:06;;;;;;;4.57;2.50;;;;;;;;;;6259978;22;20386;-86
2022/10/05 13:15:42;;;;;;;5.40;2.80;;;23.60;99.90;;;;;;6260783;22;20446;-87
2022/10/05 13:18:24;;;;;;;2.60;2.40;;;23.70;99.90;;;;;;6249478;23;20404;-87
2022/10/05 13:21:07;;;;;;;3.73;2.63;;;23.90;99.90;;;;;;6251574;22;20427;-88
2022/10/05 13:23:33;;;;;;;3.33;2.70;;;;;;;;;;6262087;22;20413;-85
2022/10/05 13:26:07;;;;;;;4.40;2.43;;;24.20;99.90;;;;;;6254883;22;20357;-85
2022/10/05 13:28:37;;;;;;;6.63;2.90;;;23.70;99.90;;;;;;6251365;22;20447;-85
2022/10/05 13:31:14;;;;;;;4.60;2.90;;;23.70;99.90;;;;;;6248871;23;20406;-86
2022/10/05 13:33:52;;;;;;;3.97;2.53;;;24.00;99.90;;;;;;6245087;23;20472;-86
2022/10/05 13:36:51;;;;;;;2.93;2.47;;;23.60;99.90;;;;;;6246212;23;20356;-87
2022/10/05 13:39:37;;;;;;;6.13;2.63;;;24.10;99.90;;;;;;6243583;23;20944;-84
2022/10/05 13:42:16;;;;;;;3.00;2.40;;;24.60;99.90;;;;;;6243462;22;20831;-85
2022/10/05 13:44:52;;;;;;;2.67;2.20;;;24.30;99.90;;;;;;6244894;22;20404;-84
2022/10/05 13:47:40;;;;;;;3.13;2.40;;;24.30;99.90;;;;;;6242599;22;20490;-85
2022/10/05 13:50:19;;;;;;;10.90;3.50;;;24.20;99.90;;;;;;6241830;22;20463;-85
2022/10/05 13:53:06;;;;;;;4.00;2.50;;;24.10;99.90;;;;;;6243953;22;20361;-84
2022/10/05 13:55:50;;;;;;;6.53;3.00;;;24.00;99.90;;;;;;6242276;22;20348;-83
2022/10/05 13:58:50;;;;;;;5.43;2.40;;;23.90;99.90;;;;;;6243627;23;21223;-86
2022/10/05 14:01:34;;;;;;;8.07;2.57;;;23.90;99.90;;;;;;6243220;23;20398;-84
2022/10/05 14:04:20;;;;;;;7.10;2.70;;;23.90;99.90;;;;;;6242796;23;20792;-86
2022/10/05 14:06:47;;;;;;;3.97;2.27;;;23.90;99.90;;;;;;6245018;22;20370;-85
2022/10/05 14:09:30;;;;;;;5.10;3.00;;;23.90;99.90;;;;;;6239550;22;20549;-85
2022/10/05 14:12:13;;;;;;;5.80;3.03;;;23.90;99.90;;;;;;6237616;23;20381;-85
2022/10/05 14:14:45;;;;;;;5.90;2.60;;;23.70;99.90;;;;;;6246728;22;20363;-85
2022/10/05 14:17:15;;;;;;;4.63;2.77;;;23.70;99.90;;;;;;6255236;22;20404;-85